sensor_id;sensor_type;location;lat;lon;timestamp;pressure;altitude;pressure_sealevel;temperature;humidity
44453;BME280;30155;52.164;21.236;2022-11-12T00:01:27;101915.92;;;9.70;89.99
44453;BME280;30155;52.164;21.236;2022-11-12T00:06:40;101910.73;;;9.70;90.05
44453;BME280;30155;52.164;21.236;2022-11-12T00:11:49;101914.49;;;9.67;90.01
44453;BME280;30155;52.164;21.236;2022-11-12T00:16:58;101918.88;;;9.68;90.09
44453;BME280;30155;52.164;21.236;2022-11-12T00:22:08;101919.33;;;9.69;90.07
44453;BME280;30155;52.164;21.236;2022-11-12T00:27:17;101924.06;;;9.68;90.05
44453;BME280;30155;52.164;21.236;2022-11-12T00:32:27;101923.65;;;9.68;90.08
44453;BME280;30155;52.164;21.236;2022-11-12T00:37:37;101924.06;;;9.68;90.06
44453;BME280;30155;52.164;21.236;2022-11-12T00:42:46;101934.91;;;9.69;90.13
44453;BME280;30155;52.164;21.236;2022-11-12T00:47:56;101932.31;;;9.69;90.11
44453;BME280;30155;52.164;21.236;2022-11-12T00:53:05;101930.66;;;9.71;90.15
44453;BME280;30155;52.164;21.236;2022-11-12T00:58:18;101925.37;;;9.68;89.98
44453;BME280;30155;52.164;21.236;2022-11-12T01:03:27;101916.34;;;9.69;90.10
44453;BME280;30155;52.164;21.236;2022-11-12T01:08:40;101921.92;;;9.69;90.12
44453;BME280;30155;52.164;21.236;2022-11-12T01:19:09;101915.05;;;9.69;89.93
44453;BME280;30155;52.164;21.236;2022-11-12T01:24:20;101919.75;;;9.68;89.98
44453;BME280;30155;52.164;21.236;2022-11-12T01:29:30;101917.58;;;9.68;90.26
44453;BME280;30155;52.164;21.236;2022-11-12T01:34:39;101911.08;;;9.68;90.00
44453;BME280;30155;52.164;21.236;2022-11-12T01:39:51;101918.39;;;9.67;90.04
44453;BME280;30155;52.164;21.236;2022-11-12T01:45:00;101912.25;;;9.65;89.95
44453;BME280;30155;52.164;21.236;2022-11-12T01:50:33;101921.77;;;9.64;90.05
44453;BME280;30155;52.164;21.236;2022-11-12T01:55:40;101926.53;;;9.65;90.17
44453;BME280;30155;52.164;21.236;2022-11-12T02:00:50;101923.00;;;9.63;90.14
44453;BME280;30155;52.164;21.236;2022-11-12T02:06:03;101918.67;;;9.63;90.26
44453;BME280;30155;52.164;21.236;2022-11-12T02:11:18;101929.48;;;9.63;90.15
44453;BME280;30155;52.164;21.236;2022-11-12T02:16:35;101923.41;;;9.62;90.29
44453;BME280;30155;52.164;21.236;2022-11-12T02:21:46;101922.12;;;9.62;90.26
44453;BME280;30155;52.164;21.236;2022-11-12T02:26:56;101927.70;;;9.62;90.36
44453;BME280;30155;52.164;21.236;2022-11-12T02:32:07;101924.65;;;9.61;90.37
44453;BME280;30155;52.164;21.236;2022-11-12T02:37:16;101921.70;;;9.63;90.38
44453;BME280;30155;52.164;21.236;2022-11-12T02:42:28;101928.19;;;9.63;90.30
44453;BME280;30155;52.164;21.236;2022-11-12T02:47:37;101932.54;;;9.64;90.26
44453;BME280;30155;52.164;21.236;2022-11-12T02:52:49;101926.89;;;9.63;90.21
44453;BME280;30155;52.164;21.236;2022-11-12T02:57:59;101932.22;;;9.66;90.29
44453;BME280;30155;52.164;21.236;2022-11-12T03:03:10;101929.13;;;9.65;90.21
44453;BME280;30155;52.164;21.236;2022-11-12T03:08:20;101938.22;;;9.65;90.32
44453;BME280;30155;52.164;21.236;2022-11-12T03:13:32;101943.48;;;9.66;90.26
44453;BME280;30155;52.164;21.236;2022-11-12T03:18:42;101950.84;;;9.67;90.33
44453;BME280;30155;52.164;21.236;2022-11-12T03:23:51;101943.91;;;9.66;90.30
44453;BME280;30155;52.164;21.236;2022-11-12T03:29:04;101943.91;;;9.66;90.32
44453;BME280;30155;52.164;21.236;2022-11-12T03:34:14;101944.58;;;9.62;90.36
44453;BME280;30155;52.164;21.236;2022-11-12T03:39:23;101949.42;;;9.64;90.28
44453;BME280;30155;52.164;21.236;2022-11-12T03:44:33;101950.72;;;9.64;90.34
44453;BME280;30155;52.164;21.236;2022-11-12T03:49:43;101946.37;;;9.63;90.32
44453;BME280;30155;52.164;21.236;2022-11-12T03:54:56;101953.31;;;9.64;90.28
44453;BME280;30155;52.164;21.236;2022-11-12T04:00:05;101952.86;;;9.63;90.33
44453;BME280;30155;52.164;21.236;2022-11-12T04:05:16;101943.28;;;9.62;90.43
44453;BME280;30155;52.164;21.236;2022-11-12T04:10:44;101949.38;;;9.62;90.48
44453;BME280;30155;52.164;21.236;2022-11-12T04:16:06;101951.91;;;9.61;90.38
44453;BME280;30155;52.164;21.236;2022-11-12T04:21:58;101944.05;;;9.59;90.32
44453;BME280;30155;52.164;21.236;2022-11-12T04:27:00;101946.23;;;9.60;90.42
44453;BME280;30155;52.164;21.236;2022-11-12T04:32:10;101941.88;;;9.59;90.30
44453;BME280;30155;52.164;21.236;2022-11-12T04:37:21;101939.61;;;9.57;90.34
44453;BME280;30155;52.164;21.236;2022-11-12T04:42:31;101939.61;;;9.57;90.38
44453;BME280;30155;52.164;21.236;2022-11-12T04:48:00;101936.13;;;9.56;90.29
44453;BME280;30155;52.164;21.236;2022-11-12T04:53:11;101937.36;;;9.54;90.29
44453;BME280;30155;52.164;21.236;2022-11-12T04:58:23;101930.42;;;9.53;90.39
44453;BME280;30155;52.164;21.236;2022-11-12T05:03:33;101933.83;;;9.52;90.30
44453;BME280;30155;52.164;21.236;2022-11-12T05:08:45;101933.83;;;9.52;90.15
44453;BME280;30155;52.164;21.236;2022-11-12T05:13:54;101930.77;;;9.51;90.08
44453;BME280;30155;52.164;21.236;2022-11-12T05:19:04;101932.07;;;9.51;90.06
44453;BME280;30155;52.164;21.236;2022-11-12T05:24:14;101930.77;;;9.51;90.08
44453;BME280;30155;52.164;21.236;2022-11-12T05:29:23;101933.76;;;9.51;90.04
44453;BME280;30155;52.164;21.236;2022-11-12T05:34:33;101930.77;;;9.51;89.91
44453;BME280;30155;52.164;21.236;2022-11-12T05:39:44;101926.88;;;9.51;89.91
44453;BME280;30155;52.164;21.236;2022-11-12T05:44:55;101933.76;;;9.51;89.88
44453;BME280;30155;52.164;21.236;2022-11-12T05:50:07;101936.28;;;9.49;89.87
44453;BME280;30155;52.164;21.236;2022-11-12T05:55:17;101942.32;;;9.48;89.58
44453;BME280;30155;52.164;21.236;2022-11-12T06:00:31;101950.47;;;9.46;89.17
44453;BME280;30155;52.164;21.236;2022-11-12T06:05:42;101967.27;;;9.45;88.77
44453;BME280;30155;52.164;21.236;2022-11-12T06:10:52;101964.05;;;9.41;88.43
44453;BME280;30155;52.164;21.236;2022-11-12T06:16:02;101972.96;;;9.36;88.30
44453;BME280;30155;52.164;21.236;2022-11-12T06:21:14;101967.63;;;9.33;88.11
44453;BME280;30155;52.164;21.236;2022-11-12T06:26:36;101970.16;;;9.31;88.16
44453;BME280;30155;52.164;21.236;2022-11-12T06:31:46;101972.30;;;9.30;88.15
44453;BME280;30155;52.164;21.236;2022-11-12T06:37:00;101974.33;;;9.28;87.85
44453;BME280;30155;52.164;21.236;2022-11-12T06:42:10;101986.36;;;9.26;87.55
44453;BME280;30155;52.164;21.236;2022-11-12T06:47:19;101980.44;;;9.19;87.47
44453;BME280;30155;52.164;21.236;2022-11-12T06:52:29;101985.20;;;9.19;87.53
44453;BME280;30155;52.164;21.236;2022-11-12T06:57:39;101978.61;;;9.16;87.33
44453;BME280;30155;52.164;21.236;2022-11-12T07:02:50;101981.59;;;9.15;87.30
44453;BME280;30155;52.164;21.236;2022-11-12T07:08:04;101989.37;;;9.15;86.83
44453;BME280;30155;52.164;21.236;2022-11-12T07:13:14;102001.29;;;9.10;86.69
44453;BME280;30155;52.164;21.236;2022-11-12T07:18:26;102014.93;;;9.06;86.38
44453;BME280;30155;52.164;21.236;2022-11-12T07:23:41;102021.62;;;9.01;86.43
44453;BME280;30155;52.164;21.236;2022-11-12T07:28:54;102013.58;;;8.95;86.44
44453;BME280;30155;52.164;21.236;2022-11-12T07:34:04;102026.41;;;8.92;86.24
44453;BME280;30155;52.164;21.236;2022-11-12T07:39:14;102025.80;;;8.88;86.10
44453;BME280;30155;52.164;21.236;2022-11-12T07:44:23;102025.30;;;8.87;86.13
44453;BME280;30155;52.164;21.236;2022-11-12T07:49:34;102030.58;;;8.78;85.84
44453;BME280;30155;52.164;21.236;2022-11-12T07:54:49;102032.34;;;8.70;85.74
44453;BME280;30155;52.164;21.236;2022-11-12T07:59:59;102032.68;;;8.68;86.15
44453;BME280;30155;52.164;21.236;2022-11-12T08:05:11;102035.08;;;8.73;85.93
44453;BME280;30155;52.164;21.236;2022-11-12T08:10:25;102043.13;;;8.69;85.94
44453;BME280;30155;52.164;21.236;2022-11-12T08:15:42;102036.23;;;8.70;86.12
44453;BME280;30155;52.164;21.236;2022-11-12T08:21:04;102033.48;;;8.67;85.80
44453;BME280;30155;52.164;21.236;2022-11-12T08:26:24;102031.12;;;8.71;85.95
44453;BME280;30155;52.164;21.236;2022-11-12T08:31:40;102025.59;;;8.73;86.09
44453;BME280;30155;52.164;21.236;2022-11-12T08:42:12;102040.11;;;8.80;86.11
44453;BME280;30155;52.164;21.236;2022-11-12T08:47:21;102033.43;;;8.85;86.17
44453;BME280;30155;52.164;21.236;2022-11-12T08:52:31;102027.97;;;8.88;86.28
44453;BME280;30155;52.164;21.236;2022-11-12T08:57:52;102035.22;;;8.86;85.88
44453;BME280;30155;52.164;21.236;2022-11-12T09:03:12;102032.20;;;8.86;86.27
44453;BME280;30155;52.164;21.236;2022-11-12T09:08:23;102048.65;;;8.87;86.18
44453;BME280;30155;52.164;21.236;2022-11-12T09:13:35;102059.17;;;8.90;86.37
44453;BME280;30155;52.164;21.236;2022-11-12T09:18:54;102055.96;;;8.95;86.39
44453;BME280;30155;52.164;21.236;2022-11-12T09:24:26;102063.67;;;8.94;86.08
44453;BME280;30155;52.164;21.236;2022-11-12T09:29:32;102065.53;;;8.96;86.21
44453;BME280;30155;52.164;21.236;2022-11-12T09:34:46;102056.11;;;8.99;86.12
44453;BME280;30155;52.164;21.236;2022-11-12T09:40:00;102069.95;;;8.99;85.83
44453;BME280;30155;52.164;21.236;2022-11-12T09:45:28;102061.72;;;8.98;85.95
44453;BME280;30155;52.164;21.236;2022-11-12T09:50:39;102064.91;;;9.02;85.84
44453;BME280;30155;52.164;21.236;2022-11-12T09:56:01;102067.58;;;9.04;85.82
44453;BME280;30155;52.164;21.236;2022-11-12T10:01:21;102063.27;;;9.04;85.81
44453;BME280;30155;52.164;21.236;2022-11-12T10:06:44;102063.77;;;9.05;85.97
44453;BME280;30155;52.164;21.236;2022-11-12T10:12:20;102069.41;;;9.06;85.70
44453;BME280;30155;52.164;21.236;2022-11-12T10:17:56;102073.03;;;9.10;85.91
44453;BME280;30155;52.164;21.236;2022-11-12T10:34:32;102074.05;;;9.13;85.68
44453;BME280;30155;52.164;21.236;2022-11-12T10:39:56;102077.56;;;9.14;85.88
44453;BME280;30155;52.164;21.236;2022-11-12T10:45:10;102081.84;;;9.13;85.76
44453;BME280;30155;52.164;21.236;2022-11-12T10:50:43;102077.14;;;9.14;85.74
44453;BME280;30155;52.164;21.236;2022-11-12T10:56:03;102083.63;;;9.14;85.92
44453;BME280;30155;52.164;21.236;2022-11-12T11:01:16;102075.35;;;9.13;85.63
44453;BME280;30155;52.164;21.236;2022-11-12T11:06:37;102078.78;;;9.12;85.58
44453;BME280;30155;52.164;21.236;2022-11-12T11:11:51;102078.86;;;9.14;85.43
44453;BME280;30155;52.164;21.236;2022-11-12T11:17:13;102083.48;;;9.11;85.44
44453;BME280;30155;52.164;21.236;2022-11-12T11:22:54;102081.73;;;9.10;85.59
44453;BME280;30155;52.164;21.236;2022-11-12T11:28:37;102080.01;;;9.11;85.72
44453;BME280;30155;52.164;21.236;2022-11-12T11:40:03;102074.89;;;9.12;85.78
44453;BME280;30155;52.164;21.236;2022-11-12T11:45:22;102073.25;;;9.14;85.83
44453;BME280;30155;52.164;21.236;2022-11-12T11:50:45;102085.38;;;9.15;85.48
44453;BME280;30155;52.164;21.236;2022-11-12T11:56:02;102090.58;;;9.15;85.61
44453;BME280;30155;52.164;21.236;2022-11-12T12:01:25;102091.41;;;9.14;85.43
44453;BME280;30155;52.164;21.236;2022-11-12T12:06:41;102097.41;;;9.13;85.23
44453;BME280;30155;52.164;21.236;2022-11-12T12:17:55;102081.58;;;9.07;85.25
44453;BME280;30155;52.164;21.236;2022-11-12T12:23:33;102074.59;;;9.06;85.36
44453;BME280;30155;52.164;21.236;2022-11-12T12:29:10;102070.70;;;9.06;85.16
44453;BME280;30155;52.164;21.236;2022-11-12T12:34:27;102071.05;;;9.04;85.38
44453;BME280;30155;52.164;21.236;2022-11-12T12:45:22;102080.13;;;9.04;85.22
44453;BME280;30155;52.164;21.236;2022-11-12T12:50:21;102082.27;;;9.03;85.06
44453;BME280;30155;52.164;21.236;2022-11-12T12:55:40;102087.77;;;9.01;85.18
44453;BME280;30155;52.164;21.236;2022-11-12T13:01:37;102082.66;;;9.03;85.10
44453;BME280;30155;52.164;21.236;2022-11-12T13:17:40;102080.75;;;8.99;85.12
44453;BME280;30155;52.164;21.236;2022-11-12T13:22:49;102082.85;;;8.97;85.10
44453;BME280;30155;52.164;21.236;2022-11-12T13:33:29;102086.36;;;8.98;85.10
44453;BME280;30155;52.164;21.236;2022-11-12T13:38:37;102092.95;;;9.01;85.16
44453;BME280;30155;52.164;21.236;2022-11-12T13:43:48;102088.11;;;8.99;84.92
44453;BME280;30155;52.164;21.236;2022-11-12T13:49:14;102093.30;;;8.99;85.23
44453;BME280;30155;52.164;21.236;2022-11-12T13:54:34;102091.66;;;9.01;85.18
44453;BME280;30155;52.164;21.236;2022-11-12T13:59:46;102094.26;;;9.01;85.28
44453;BME280;30155;52.164;21.236;2022-11-12T14:04:57;102090.36;;;9.01;85.15
44453;BME280;30155;52.164;21.236;2022-11-12T14:22:34;102087.23;;;8.99;85.29
44453;BME280;30155;52.164;21.236;2022-11-12T14:27:35;102086.36;;;8.98;85.38
44453;BME280;30155;52.164;21.236;2022-11-12T14:32:59;102090.25;;;8.98;85.36
44453;BME280;30155;52.164;21.236;2022-11-12T14:38:29;102091.13;;;8.99;85.53
44453;BME280;30155;52.164;21.236;2022-11-12T14:43:50;102083.27;;;8.97;85.49
44453;BME280;30155;52.164;21.236;2022-11-12T14:54:41;102084.42;;;8.94;85.27
44453;BME280;30155;52.164;21.236;2022-11-12T15:00:24;102085.26;;;8.93;85.54
44453;BME280;30155;52.164;21.236;2022-11-12T15:05:56;102088.20;;;8.91;85.65
44453;BME280;30155;52.164;21.236;2022-11-12T15:11:20;102098.08;;;8.90;85.75
44453;BME280;30155;52.164;21.236;2022-11-12T15:16:35;102088.05;;;8.88;85.84
44453;BME280;30155;52.164;21.236;2022-11-12T15:21:49;102092.74;;;8.87;85.84
44453;BME280;30155;52.164;21.236;2022-11-12T15:27:41;102101.81;;;8.87;86.04
44453;BME280;30155;52.164;21.236;2022-11-12T15:32:46;102092.66;;;8.85;85.98
44453;BME280;30155;52.164;21.236;2022-11-12T15:38:23;102093.92;;;8.84;86.18
44453;BME280;30155;52.164;21.236;2022-11-12T15:43:44;102107.20;;;8.82;86.31
44453;BME280;30155;52.164;21.236;2022-11-12T15:49:00;102115.39;;;8.81;86.45
44453;BME280;30155;52.164;21.236;2022-11-12T15:54:07;102117.11;;;8.81;86.54
44453;BME280;30155;52.164;21.236;2022-11-12T15:59:17;102110.63;;;8.81;86.53
44453;BME280;30155;52.164;21.236;2022-11-12T16:04:27;102121.34;;;8.78;86.45
44453;BME280;30155;52.164;21.236;2022-11-12T16:09:38;102122.64;;;8.78;86.56
44453;BME280;30155;52.164;21.236;2022-11-12T16:14:52;102118.26;;;8.77;86.51
44453;BME280;30155;52.164;21.236;2022-11-12T16:20:16;102133.02;;;8.78;86.78
44453;BME280;30155;52.164;21.236;2022-11-12T16:25:31;102143.38;;;8.78;86.79
44453;BME280;30155;52.164;21.236;2022-11-12T16:30:44;102139.95;;;8.80;86.93
44453;BME280;30155;52.164;21.236;2022-11-12T16:36:16;102143.58;;;8.83;86.98
44453;BME280;30155;52.164;21.236;2022-11-12T16:41:56;102155.52;;;8.80;87.06
44453;BME280;30155;52.164;21.236;2022-11-12T16:47:15;102145.98;;;8.78;87.07
44453;BME280;30155;52.164;21.236;2022-11-12T16:52:48;102150.21;;;8.76;87.08
44453;BME280;30155;52.164;21.236;2022-11-12T16:58:25;102154.56;;;8.77;87.22
44453;BME280;30155;52.164;21.236;2022-11-12T17:04:04;102156.28;;;8.77;87.29
44453;BME280;30155;52.164;21.236;2022-11-12T17:09:42;102145.98;;;8.78;87.39
44453;BME280;30155;52.164;21.236;2022-11-12T17:20:22;102150.05;;;8.73;87.52
44453;BME280;30155;52.164;21.236;2022-11-12T17:25:46;102153.53;;;8.74;87.60
44453;BME280;30155;52.164;21.236;2022-11-12T17:31:28;102141.78;;;8.72;87.70
44453;BME280;30155;52.164;21.236;2022-11-12T17:42:16;102141.78;;;8.72;87.88
44453;BME280;30155;52.164;21.236;2022-11-12T17:47:35;102142.62;;;8.71;87.86
44453;BME280;30155;52.164;21.236;2022-11-12T17:58:18;102142.13;;;8.70;88.04
44453;BME280;30155;52.164;21.236;2022-11-12T18:03:39;102138.58;;;8.68;88.20
44453;BME280;30155;52.164;21.236;2022-11-12T18:09:00;102128.70;;;8.69;88.48
44453;BME280;30155;52.164;21.236;2022-11-12T18:14:09;102138.73;;;8.71;88.51
44453;BME280;30155;52.164;21.236;2022-11-12T18:19:21;102130.95;;;8.71;88.56
44453;BME280;30155;52.164;21.236;2022-11-12T18:24:57;102137.43;;;8.71;88.50
44453;BME280;30155;52.164;21.236;2022-11-12T18:29:57;102138.31;;;8.72;88.70
44453;BME280;30155;52.164;21.236;2022-11-12T18:35:21;102144.87;;;8.73;88.72
44453;BME280;30155;52.164;21.236;2022-11-12T18:40:41;102133.54;;;8.71;88.71
44453;BME280;30155;52.164;21.236;2022-11-12T18:45:57;102137.89;;;8.72;88.93
44453;BME280;30155;52.164;21.236;2022-11-12T18:51:50;102136.25;;;8.74;88.94
44453;BME280;30155;52.164;21.236;2022-11-12T19:13:26;102155.24;;;8.73;89.29
44453;BME280;30155;52.164;21.236;2022-11-12T19:18:37;102148.42;;;8.75;89.38
44453;BME280;30155;52.164;21.236;2022-11-12T19:23:53;102152.23;;;8.74;89.44
44453;BME280;30155;52.164;21.236;2022-11-12T19:29:08;102140.98;;;8.73;89.53
44453;BME280;30155;52.164;21.236;2022-11-12T19:34:16;102147.47;;;8.73;89.71
44453;BME280;30155;52.164;21.236;2022-11-12T19:39:28;102145.29;;;8.73;89.74
44453;BME280;30155;52.164;21.236;2022-11-12T19:44:42;102146.59;;;8.73;89.85
44453;BME280;30155;52.164;21.236;2022-11-12T19:49:53;102151.77;;;8.73;89.94
44453;BME280;30155;52.164;21.236;2022-11-12T19:55:04;102156.54;;;8.73;90.00
44453;BME280;30155;52.164;21.236;2022-11-12T20:00:20;102157.34;;;8.72;90.11
44453;BME280;30155;52.164;21.236;2022-11-12T20:05:31;102156.05;;;8.72;90.11
44453;BME280;30155;52.164;21.236;2022-11-12T20:10:45;102162.53;;;8.72;90.22
44453;BME280;30155;52.164;21.236;2022-11-12T20:15:55;102171.27;;;8.74;90.31
44453;BME280;30155;52.164;21.236;2022-11-12T20:21:05;102162.06;;;8.71;90.31
44453;BME280;30155;52.164;21.236;2022-11-12T20:26:17;102168.05;;;8.70;90.35
44453;BME280;30155;52.164;21.236;2022-11-12T20:31:27;102168.89;;;8.69;90.39
44453;BME280;30155;52.164;21.236;2022-11-12T20:36:36;102164.09;;;8.69;90.46
44453;BME280;30155;52.164;21.236;2022-11-12T20:41:46;102176.67;;;8.69;90.50
44453;BME280;30155;52.164;21.236;2022-11-12T20:46:56;102174.53;;;8.70;90.70
44453;BME280;30155;52.164;21.236;2022-11-12T20:52:06;102178.01;;;8.71;90.77
44453;BME280;30155;52.164;21.236;2022-11-12T20:57:15;102182.81;;;8.71;90.72
44453;BME280;30155;52.164;21.236;2022-11-12T21:02:25;102186.70;;;8.71;90.71
44453;BME280;30155;52.164;21.236;2022-11-12T21:07:34;102180.59;;;8.71;90.82
44453;BME280;30155;52.164;21.236;2022-11-12T21:12:44;102169.84;;;8.71;90.98
44453;BME280;30155;52.164;21.236;2022-11-12T21:17:53;102172.02;;;8.72;91.02
44453;BME280;30155;52.164;21.236;2022-11-12T21:23:03;102168.89;;;8.69;90.97
44453;BME280;30155;52.164;21.236;2022-11-12T21:28:30;102159.31;;;8.68;91.01
44453;BME280;30155;52.164;21.236;2022-11-12T21:33:55;102168.89;;;8.69;91.14
44453;BME280;30155;52.164;21.236;2022-11-12T21:45:10;102170.91;;;8.67;91.15
44453;BME280;30155;52.164;21.236;2022-11-12T21:50:23;102172.20;;;8.67;91.27
44453;BME280;30155;52.164;21.236;2022-11-12T21:55:39;102180.86;;;8.67;91.34
44453;BME280;30155;52.164;21.236;2022-11-12T22:00:45;102170.11;;;8.68;91.51
44453;BME280;30155;52.164;21.236;2022-11-12T22:05:58;102174.88;;;8.68;91.46
44453;BME280;30155;52.164;21.236;2022-11-12T22:11:13;102178.77;;;8.68;91.52
44453;BME280;30155;52.164;21.236;2022-11-12T22:16:29;102172.28;;;8.68;91.60
44453;BME280;30155;52.164;21.236;2022-11-12T22:21:38;102168.94;;;8.71;91.52
44453;BME280;30155;52.164;21.236;2022-11-12T22:26:48;102170.19;;;8.69;91.60
44453;BME280;30155;52.164;21.236;2022-11-12T22:31:57;102173.23;;;8.70;91.67
44453;BME280;30155;52.164;21.236;2022-11-12T22:37:09;102170.23;;;8.71;91.83
44453;BME280;30155;52.164;21.236;2022-11-12T22:42:21;102166.34;;;8.71;91.83
44453;BME280;30155;52.164;21.236;2022-11-12T22:47:32;102164.58;;;8.70;91.78
44453;BME280;30155;52.164;21.236;2022-11-12T22:52:48;102165.46;;;8.70;91.78
44453;BME280;30155;52.164;21.236;2022-11-12T22:57:58;102158.09;;;8.70;92.00
44453;BME280;30155;52.164;21.236;2022-11-12T23:03:09;102166.42;;;8.72;92.00
44453;BME280;30155;52.164;21.236;2022-11-12T23:08:22;102163.02;;;8.73;92.08
44453;BME280;30155;52.164;21.236;2022-11-12T23:13:34;102159.13;;;8.73;92.05
44453;BME280;30155;52.164;21.236;2022-11-12T23:18:43;102161.72;;;8.73;92.16
44453;BME280;30155;52.164;21.236;2022-11-12T23:23:59;102166.03;;;8.73;92.14
44453;BME280;30155;52.164;21.236;2022-11-12T23:29:12;102166.91;;;8.73;92.20
44453;BME280;30155;52.164;21.236;2022-11-12T23:34:25;102170.46;;;8.75;92.34
44453;BME280;30155;52.164;21.236;2022-11-12T23:39:41;102165.77;;;8.76;92.38
44453;BME280;30155;52.164;21.236;2022-11-12T23:44:54;102168.83;;;8.77;92.35
44453;BME280;30155;52.164;21.236;2022-11-12T23:50:11;102160.24;;;8.78;92.37
44453;BME280;30155;52.164;21.236;2022-11-12T23:55:22;102159.75;;;8.77;92.41
